sensor_id;sensor_type;location;lat;lon;timestamp;P1;durP1;ratioP1;P2;durP2;ratioP2
5608;SDS011;2826;51.354;9.588;2022-10-22T00:01:47;32.40;;;21.20;;
5608;SDS011;2826;51.354;9.588;2022-10-22T00:04:14;36.73;;;21.37;;
5608;SDS011;2826;51.354;9.588;2022-10-22T00:06:41;34.17;;;21.47;;
5608;SDS011;2826;51.354;9.588;2022-10-22T00:09:09;43.67;;;22.07;;
5608;SDS011;2826;51.354;9.588;2022-10-22T00:11:36;37.33;;;21.10;;
5608;SDS011;2826;51.354;9.588;2022-10-22T00:14:04;31.63;;;18.97;;
5608;SDS011;2826;51.354;9.588;2022-10-22T00:16:32;40.70;;;20.00;;
5608;SDS011;2826;51.354;9.588;2022-10-22T00:18:59;40.27;;;20.53;;
5608;SDS011;2826;51.354;9.588;2022-10-22T00:21:26;29.43;;;18.40;;
5608;SDS011;2826;51.354;9.588;2022-10-22T00:23:53;30.27;;;19.00;;
5608;SDS011;2826;51.354;9.588;2022-10-22T00:26:20;28.17;;;17.20;;
5608;SDS011;2826;51.354;9.588;2022-10-22T00:28:48;33.87;;;19.20;;
5608;SDS011;2826;51.354;9.588;2022-10-22T00:31:15;31.00;;;19.00;;
5608;SDS011;2826;51.354;9.588;2022-10-22T00:33:45;30.00;;;17.30;;
5608;SDS011;2826;51.354;9.588;2022-10-22T00:36:13;28.70;;;18.97;;
5608;SDS011;2826;51.354;9.588;2022-10-22T00:38:39;29.93;;;18.27;;
5608;SDS011;2826;51.354;9.588;2022-10-22T00:41:07;42.00;;;19.70;;
5608;SDS011;2826;51.354;9.588;2022-10-22T00:46:20;31.23;;;19.87;;
5608;SDS011;2826;51.354;9.588;2022-10-22T00:48:48;26.60;;;17.67;;
5608;SDS011;2826;51.354;9.588;2022-10-22T00:51:16;30.10;;;17.27;;
5608;SDS011;2826;51.354;9.588;2022-10-22T00:53:47;31.07;;;18.27;;
5608;SDS011;2826;51.354;9.588;2022-10-22T00:56:16;30.17;;;18.40;;
5608;SDS011;2826;51.354;9.588;2022-10-22T00:58:44;29.63;;;19.40;;
5608;SDS011;2826;51.354;9.588;2022-10-22T01:01:16;29.97;;;19.03;;
5608;SDS011;2826;51.354;9.588;2022-10-22T01:03:46;38.03;;;18.40;;
5608;SDS011;2826;51.354;9.588;2022-10-22T01:06:17;37.50;;;19.77;;
5608;SDS011;2826;51.354;9.588;2022-10-22T01:08:51;33.77;;;19.73;;
5608;SDS011;2826;51.354;9.588;2022-10-22T01:11:30;28.47;;;19.27;;
5608;SDS011;2826;51.354;9.588;2022-10-22T01:14:09;37.70;;;20.50;;
5608;SDS011;2826;51.354;9.588;2022-10-22T01:16:42;30.83;;;19.20;;
5608;SDS011;2826;51.354;9.588;2022-10-22T01:19:32;28.83;;;18.73;;
5608;SDS011;2826;51.354;9.588;2022-10-22T01:22:13;41.80;;;20.63;;
5608;SDS011;2826;51.354;9.588;2022-10-22T01:24:50;34.87;;;20.67;;
5608;SDS011;2826;51.354;9.588;2022-10-22T01:27:25;36.70;;;21.20;;
5608;SDS011;2826;51.354;9.588;2022-10-22T01:30:00;34.50;;;20.70;;
5608;SDS011;2826;51.354;9.588;2022-10-22T01:32:30;32.10;;;19.80;;
5608;SDS011;2826;51.354;9.588;2022-10-22T01:35:02;33.20;;;19.17;;
5608;SDS011;2826;51.354;9.588;2022-10-22T01:37:51;34.50;;;20.30;;
5608;SDS011;2826;51.354;9.588;2022-10-22T01:40:22;32.50;;;20.67;;
5608;SDS011;2826;51.354;9.588;2022-10-22T01:42:54;32.10;;;18.63;;
5608;SDS011;2826;51.354;9.588;2022-10-22T01:45:23;34.83;;;18.80;;
5608;SDS011;2826;51.354;9.588;2022-10-22T01:47:54;25.40;;;17.17;;
5608;SDS011;2826;51.354;9.588;2022-10-22T01:50:31;26.57;;;17.17;;
5608;SDS011;2826;51.354;9.588;2022-10-22T01:53:11;28.70;;;16.90;;
5608;SDS011;2826;51.354;9.588;2022-10-22T01:55:51;24.37;;;14.67;;
5608;SDS011;2826;51.354;9.588;2022-10-22T01:58:28;24.87;;;16.93;;
5608;SDS011;2826;51.354;9.588;2022-10-22T02:01:04;27.47;;;15.93;;
5608;SDS011;2826;51.354;9.588;2022-10-22T02:03:39;26.47;;;17.73;;
5608;SDS011;2826;51.354;9.588;2022-10-22T02:06:11;28.47;;;15.97;;
5608;SDS011;2826;51.354;9.588;2022-10-22T02:08:43;27.23;;;16.03;;
5608;SDS011;2826;51.354;9.588;2022-10-22T02:11:11;31.13;;;17.10;;
5608;SDS011;2826;51.354;9.588;2022-10-22T02:13:41;34.53;;;19.50;;
5608;SDS011;2826;51.354;9.588;2022-10-22T02:16:13;35.07;;;19.67;;
5608;SDS011;2826;51.354;9.588;2022-10-22T02:18:51;32.23;;;20.60;;
5608;SDS011;2826;51.354;9.588;2022-10-22T02:21:20;42.23;;;20.40;;
5608;SDS011;2826;51.354;9.588;2022-10-22T02:23:47;37.40;;;20.03;;
5608;SDS011;2826;51.354;9.588;2022-10-22T02:26:15;41.60;;;19.17;;
5608;SDS011;2826;51.354;9.588;2022-10-22T02:28:51;36.73;;;20.00;;
5608;SDS011;2826;51.354;9.588;2022-10-22T02:31:25;37.73;;;19.60;;
5608;SDS011;2826;51.354;9.588;2022-10-22T02:33:55;34.03;;;20.10;;
5608;SDS011;2826;51.354;9.588;2022-10-22T02:36:27;40.73;;;21.40;;
5608;SDS011;2826;51.354;9.588;2022-10-22T02:38:54;38.07;;;20.20;;
5608;SDS011;2826;51.354;9.588;2022-10-22T02:41:22;39.73;;;20.10;;
5608;SDS011;2826;51.354;9.588;2022-10-22T02:43:49;36.37;;;21.13;;
5608;SDS011;2826;51.354;9.588;2022-10-22T02:46:19;28.90;;;20.27;;
5608;SDS011;2826;51.354;9.588;2022-10-22T02:48:47;33.67;;;19.67;;
5608;SDS011;2826;51.354;9.588;2022-10-22T02:51:14;33.23;;;18.17;;
5608;SDS011;2826;51.354;9.588;2022-10-22T02:53:41;37.40;;;20.60;;
5608;SDS011;2826;51.354;9.588;2022-10-22T02:56:08;37.47;;;19.57;;
5608;SDS011;2826;51.354;9.588;2022-10-22T02:58:35;34.47;;;18.40;;
5608;SDS011;2826;51.354;9.588;2022-10-22T03:01:02;31.30;;;19.07;;
5608;SDS011;2826;51.354;9.588;2022-10-22T03:03:29;33.53;;;19.60;;
5608;SDS011;2826;51.354;9.588;2022-10-22T03:05:57;33.80;;;18.97;;
5608;SDS011;2826;51.354;9.588;2022-10-22T03:08:24;32.37;;;18.73;;
5608;SDS011;2826;51.354;9.588;2022-10-22T03:10:51;29.60;;;18.03;;
5608;SDS011;2826;51.354;9.588;2022-10-22T03:13:18;28.23;;;16.83;;
5608;SDS011;2826;51.354;9.588;2022-10-22T03:15:46;31.93;;;17.60;;
5608;SDS011;2826;51.354;9.588;2022-10-22T03:18:14;31.20;;;18.70;;
5608;SDS011;2826;51.354;9.588;2022-10-22T03:20:41;32.37;;;16.37;;
5608;SDS011;2826;51.354;9.588;2022-10-22T03:23:09;23.70;;;16.00;;
5608;SDS011;2826;51.354;9.588;2022-10-22T03:25:38;27.37;;;17.13;;
5608;SDS011;2826;51.354;9.588;2022-10-22T03:28:07;30.00;;;16.83;;
5608;SDS011;2826;51.354;9.588;2022-10-22T03:30:36;28.13;;;15.80;;
5608;SDS011;2826;51.354;9.588;2022-10-22T03:33:03;29.83;;;14.70;;
5608;SDS011;2826;51.354;9.588;2022-10-22T03:35:30;35.47;;;16.60;;
5608;SDS011;2826;51.354;9.588;2022-10-22T03:37:59;26.07;;;16.37;;
5608;SDS011;2826;51.354;9.588;2022-10-22T03:40:28;30.70;;;16.17;;
5608;SDS011;2826;51.354;9.588;2022-10-22T03:42:55;25.97;;;16.80;;
5608;SDS011;2826;51.354;9.588;2022-10-22T03:45:22;35.43;;;15.80;;
5608;SDS011;2826;51.354;9.588;2022-10-22T03:47:49;32.60;;;17.00;;
5608;SDS011;2826;51.354;9.588;2022-10-22T03:50:16;29.53;;;17.13;;
5608;SDS011;2826;51.354;9.588;2022-10-22T03:52:43;39.23;;;17.73;;
5608;SDS011;2826;51.354;9.588;2022-10-22T03:55:11;31.67;;;15.77;;
5608;SDS011;2826;51.354;9.588;2022-10-22T03:57:39;30.10;;;16.10;;
5608;SDS011;2826;51.354;9.588;2022-10-22T04:00:06;25.70;;;16.80;;
5608;SDS011;2826;51.354;9.588;2022-10-22T04:02:36;35.23;;;17.70;;
5608;SDS011;2826;51.354;9.588;2022-10-22T04:05:03;31.00;;;17.13;;
5608;SDS011;2826;51.354;9.588;2022-10-22T04:07:30;32.20;;;17.10;;
5608;SDS011;2826;51.354;9.588;2022-10-22T04:09:57;31.40;;;17.60;;
5608;SDS011;2826;51.354;9.588;2022-10-22T04:15:06;29.83;;;17.30;;
5608;SDS011;2826;51.354;9.588;2022-10-22T04:17:34;32.23;;;17.50;;
5608;SDS011;2826;51.354;9.588;2022-10-22T04:20:02;33.03;;;17.03;;
5608;SDS011;2826;51.354;9.588;2022-10-22T04:22:32;29.50;;;17.77;;
5608;SDS011;2826;51.354;9.588;2022-10-22T04:24:59;28.63;;;18.13;;
5608;SDS011;2826;51.354;9.588;2022-10-22T04:27:28;32.40;;;16.80;;
5608;SDS011;2826;51.354;9.588;2022-10-22T04:29:55;35.10;;;16.67;;
5608;SDS011;2826;51.354;9.588;2022-10-22T04:32:23;34.63;;;17.50;;
5608;SDS011;2826;51.354;9.588;2022-10-22T04:34:50;38.63;;;18.23;;
5608;SDS011;2826;51.354;9.588;2022-10-22T04:37:17;29.63;;;17.87;;
5608;SDS011;2826;51.354;9.588;2022-10-22T04:39:44;32.00;;;17.30;;
5608;SDS011;2826;51.354;9.588;2022-10-22T04:42:11;42.30;;;16.30;;
5608;SDS011;2826;51.354;9.588;2022-10-22T04:44:38;35.53;;;18.37;;
5608;SDS011;2826;51.354;9.588;2022-10-22T04:47:05;31.13;;;17.83;;
5608;SDS011;2826;51.354;9.588;2022-10-22T04:49:33;33.83;;;19.13;;
5608;SDS011;2826;51.354;9.588;2022-10-22T04:52:00;31.67;;;17.77;;
5608;SDS011;2826;51.354;9.588;2022-10-22T04:54:27;35.20;;;18.17;;
5608;SDS011;2826;51.354;9.588;2022-10-22T04:56:54;37.73;;;17.90;;
5608;SDS011;2826;51.354;9.588;2022-10-22T04:59:20;34.03;;;17.00;;
5608;SDS011;2826;51.354;9.588;2022-10-22T05:01:47;29.37;;;16.53;;
5608;SDS011;2826;51.354;9.588;2022-10-22T05:04:14;31.20;;;15.83;;
5608;SDS011;2826;51.354;9.588;2022-10-22T05:06:45;30.77;;;16.07;;
5608;SDS011;2826;51.354;9.588;2022-10-22T05:09:12;34.03;;;17.67;;
5608;SDS011;2826;51.354;9.588;2022-10-22T05:11:43;29.20;;;16.60;;
5608;SDS011;2826;51.354;9.588;2022-10-22T05:14:14;32.50;;;16.60;;
5608;SDS011;2826;51.354;9.588;2022-10-22T05:16:41;27.87;;;16.70;;
5608;SDS011;2826;51.354;9.588;2022-10-22T05:19:10;27.90;;;16.20;;
5608;SDS011;2826;51.354;9.588;2022-10-22T05:21:41;28.73;;;16.47;;
5608;SDS011;2826;51.354;9.588;2022-10-22T05:24:09;40.30;;;16.20;;
5608;SDS011;2826;51.354;9.588;2022-10-22T05:26:36;37.30;;;17.33;;
5608;SDS011;2826;51.354;9.588;2022-10-22T05:29:02;31.87;;;15.50;;
5608;SDS011;2826;51.354;9.588;2022-10-22T05:31:29;32.93;;;17.20;;
5608;SDS011;2826;51.354;9.588;2022-10-22T05:33:56;29.87;;;15.20;;
5608;SDS011;2826;51.354;9.588;2022-10-22T05:36:23;30.20;;;14.20;;
5608;SDS011;2826;51.354;9.588;2022-10-22T05:38:50;31.97;;;16.27;;
5608;SDS011;2826;51.354;9.588;2022-10-22T05:41:19;30.13;;;15.87;;
5608;SDS011;2826;51.354;9.588;2022-10-22T05:43:47;28.33;;;16.23;;
5608;SDS011;2826;51.354;9.588;2022-10-22T05:46:14;27.30;;;15.53;;
5608;SDS011;2826;51.354;9.588;2022-10-22T05:48:42;25.03;;;13.80;;
5608;SDS011;2826;51.354;9.588;2022-10-22T05:51:10;28.97;;;15.77;;
5608;SDS011;2826;51.354;9.588;2022-10-22T05:53:38;28.53;;;14.47;;
5608;SDS011;2826;51.354;9.588;2022-10-22T05:56:07;30.50;;;17.23;;
5608;SDS011;2826;51.354;9.588;2022-10-22T05:58:38;25.63;;;15.40;;
5608;SDS011;2826;51.354;9.588;2022-10-22T06:01:06;32.20;;;16.47;;
5608;SDS011;2826;51.354;9.588;2022-10-22T06:03:36;27.43;;;14.57;;
5608;SDS011;2826;51.354;9.588;2022-10-22T06:06:04;27.93;;;15.23;;
5608;SDS011;2826;51.354;9.588;2022-10-22T06:08:43;26.27;;;15.07;;
5608;SDS011;2826;51.354;9.588;2022-10-22T06:11:10;28.13;;;15.07;;
5608;SDS011;2826;51.354;9.588;2022-10-22T06:13:38;29.40;;;15.33;;
5608;SDS011;2826;51.354;9.588;2022-10-22T06:16:05;32.13;;;17.40;;
5608;SDS011;2826;51.354;9.588;2022-10-22T06:18:32;29.17;;;16.13;;
5608;SDS011;2826;51.354;9.588;2022-10-22T06:21:02;35.50;;;18.20;;
5608;SDS011;2826;51.354;9.588;2022-10-22T06:23:30;44.10;;;19.00;;
5608;SDS011;2826;51.354;9.588;2022-10-22T06:25:57;36.43;;;19.90;;
5608;SDS011;2826;51.354;9.588;2022-10-22T06:28:25;43.87;;;18.93;;
5608;SDS011;2826;51.354;9.588;2022-10-22T06:30:53;44.20;;;20.47;;
5608;SDS011;2826;51.354;9.588;2022-10-22T06:33:20;37.67;;;19.80;;
5608;SDS011;2826;51.354;9.588;2022-10-22T06:35:47;39.70;;;19.20;;
5608;SDS011;2826;51.354;9.588;2022-10-22T06:38:14;59.93;;;19.77;;
5608;SDS011;2826;51.354;9.588;2022-10-22T06:40:41;43.20;;;20.53;;
5608;SDS011;2826;51.354;9.588;2022-10-22T06:43:09;50.93;;;19.30;;
5608;SDS011;2826;51.354;9.588;2022-10-22T06:45:36;40.97;;;20.37;;
5608;SDS011;2826;51.354;9.588;2022-10-22T06:48:04;57.13;;;22.60;;
5608;SDS011;2826;51.354;9.588;2022-10-22T06:50:32;43.47;;;21.30;;
5608;SDS011;2826;51.354;9.588;2022-10-22T06:52:59;53.53;;;23.20;;
5608;SDS011;2826;51.354;9.588;2022-10-22T06:55:26;47.67;;;22.47;;
5608;SDS011;2826;51.354;9.588;2022-10-22T06:57:53;62.07;;;21.47;;
5608;SDS011;2826;51.354;9.588;2022-10-22T07:00:21;37.90;;;18.33;;
5608;SDS011;2826;51.354;9.588;2022-10-22T07:02:49;49.90;;;20.40;;
5608;SDS011;2826;51.354;9.588;2022-10-22T07:05:19;36.50;;;17.90;;
5608;SDS011;2826;51.354;9.588;2022-10-22T07:07:46;31.37;;;17.00;;
5608;SDS011;2826;51.354;9.588;2022-10-22T07:10:13;37.33;;;17.33;;
5608;SDS011;2826;51.354;9.588;2022-10-22T07:12:40;37.40;;;15.60;;
5608;SDS011;2826;51.354;9.588;2022-10-22T07:15:07;33.87;;;14.50;;
5608;SDS011;2826;51.354;9.588;2022-10-22T07:17:34;28.60;;;13.37;;
5608;SDS011;2826;51.354;9.588;2022-10-22T07:20:01;19.27;;;12.60;;
5608;SDS011;2826;51.354;9.588;2022-10-22T07:22:29;22.83;;;12.70;;
5608;SDS011;2826;51.354;9.588;2022-10-22T07:24:57;17.70;;;11.40;;
5608;SDS011;2826;51.354;9.588;2022-10-22T07:27:23;21.30;;;11.17;;
5608;SDS011;2826;51.354;9.588;2022-10-22T07:29:50;18.60;;;9.50;;
5608;SDS011;2826;51.354;9.588;2022-10-22T07:32:17;16.17;;;9.07;;
5608;SDS011;2826;51.354;9.588;2022-10-22T07:34:44;13.90;;;9.00;;
5608;SDS011;2826;51.354;9.588;2022-10-22T07:37:11;11.97;;;8.20;;
5608;SDS011;2826;51.354;9.588;2022-10-22T07:39:39;22.63;;;8.50;;
5608;SDS011;2826;51.354;9.588;2022-10-22T07:42:06;36.33;;;7.37;;
5608;SDS011;2826;51.354;9.588;2022-10-22T07:44:33;13.90;;;6.97;;
5608;SDS011;2826;51.354;9.588;2022-10-22T07:47:00;11.33;;;6.20;;
5608;SDS011;2826;51.354;9.588;2022-10-22T07:49:26;13.27;;;6.10;;
5608;SDS011;2826;51.354;9.588;2022-10-22T07:51:53;13.10;;;5.70;;
5608;SDS011;2826;51.354;9.588;2022-10-22T07:54:21;6.13;;;4.80;;
5608;SDS011;2826;51.354;9.588;2022-10-22T07:56:49;7.40;;;4.23;;
5608;SDS011;2826;51.354;9.588;2022-10-22T07:59:16;12.33;;;4.43;;
5608;SDS011;2826;51.354;9.588;2022-10-22T08:01:43;4.70;;;3.60;;
5608;SDS011;2826;51.354;9.588;2022-10-22T08:04:11;4.87;;;3.67;;
5608;SDS011;2826;51.354;9.588;2022-10-22T08:06:38;9.87;;;4.40;;
5608;SDS011;2826;51.354;9.588;2022-10-22T08:09:04;5.70;;;3.60;;
5608;SDS011;2826;51.354;9.588;2022-10-22T08:11:31;8.27;;;3.87;;
5608;SDS011;2826;51.354;9.588;2022-10-22T08:14:00;4.00;;;3.57;;
5608;SDS011;2826;51.354;9.588;2022-10-22T08:16:27;8.50;;;3.50;;
5608;SDS011;2826;51.354;9.588;2022-10-22T08:18:54;9.30;;;3.67;;
5608;SDS011;2826;51.354;9.588;2022-10-22T08:21:21;4.83;;;3.30;;
5608;SDS011;2826;51.354;9.588;2022-10-22T08:23:48;10.10;;;4.23;;
5608;SDS011;2826;51.354;9.588;2022-10-22T08:26:14;3.53;;;3.17;;
5608;SDS011;2826;51.354;9.588;2022-10-22T08:28:42;4.90;;;3.40;;
5608;SDS011;2826;51.354;9.588;2022-10-22T08:31:11;5.55;;;3.42;;
5608;SDS011;2826;51.354;9.588;2022-10-22T08:33:38;3.73;;;3.00;;
5608;SDS011;2826;51.354;9.588;2022-10-22T08:36:06;16.03;;;3.70;;
5608;SDS011;2826;51.354;9.588;2022-10-22T08:38:33;11.40;;;3.60;;
5608;SDS011;2826;51.354;9.588;2022-10-22T08:41:02;7.23;;;3.80;;
5608;SDS011;2826;51.354;9.588;2022-10-22T08:43:50;7.93;;;3.87;;
5608;SDS011;2826;51.354;9.588;2022-10-22T08:46:31;11.63;;;4.10;;
5608;SDS011;2826;51.354;9.588;2022-10-22T08:49:08;12.10;;;5.30;;
5608;SDS011;2826;51.354;9.588;2022-10-22T08:51:38;18.17;;;4.53;;
5608;SDS011;2826;51.354;9.588;2022-10-22T08:54:08;9.00;;;4.77;;
5608;SDS011;2826;51.354;9.588;2022-10-22T08:56:44;9.90;;;4.20;;
5608;SDS011;2826;51.354;9.588;2022-10-22T08:59:18;7.90;;;4.80;;
5608;SDS011;2826;51.354;9.588;2022-10-22T09:01:50;4.53;;;4.13;;
5608;SDS011;2826;51.354;9.588;2022-10-22T09:04:20;13.40;;;4.80;;
5608;SDS011;2826;51.354;9.588;2022-10-22T09:06:54;11.33;;;4.70;;
5608;SDS011;2826;51.354;9.588;2022-10-22T09:09:24;59.40;;;5.00;;
5608;SDS011;2826;51.354;9.588;2022-10-22T09:11:54;17.57;;;5.20;;
5608;SDS011;2826;51.354;9.588;2022-10-22T09:14:24;12.33;;;5.50;;
5608;SDS011;2826;51.354;9.588;2022-10-22T09:17:01;18.03;;;4.90;;
5608;SDS011;2826;51.354;9.588;2022-10-22T09:19:39;10.07;;;4.90;;
5608;SDS011;2826;51.354;9.588;2022-10-22T09:22:15;9.47;;;5.20;;
5608;SDS011;2826;51.354;9.588;2022-10-22T09:24:51;11.20;;;5.10;;
5608;SDS011;2826;51.354;9.588;2022-10-22T09:27:25;8.63;;;4.47;;
5608;SDS011;2826;51.354;9.588;2022-10-22T09:29:54;10.93;;;4.83;;
5608;SDS011;2826;51.354;9.588;2022-10-22T09:32:22;14.37;;;5.30;;
5608;SDS011;2826;51.354;9.588;2022-10-22T09:34:53;6.73;;;4.30;;
5608;SDS011;2826;51.354;9.588;2022-10-22T09:37:24;10.10;;;5.40;;
5608;SDS011;2826;51.354;9.588;2022-10-22T09:39:54;10.67;;;5.00;;
5608;SDS011;2826;51.354;9.588;2022-10-22T09:42:23;9.03;;;4.70;;
5608;SDS011;2826;51.354;9.588;2022-10-22T09:44:51;8.33;;;4.10;;
5608;SDS011;2826;51.354;9.588;2022-10-22T09:47:30;9.90;;;4.67;;
5608;SDS011;2826;51.354;9.588;2022-10-22T09:50:17;11.63;;;4.50;;
5608;SDS011;2826;51.354;9.588;2022-10-22T09:52:53;10.90;;;5.00;;
5608;SDS011;2826;51.354;9.588;2022-10-22T09:55:23;8.07;;;4.73;;
5608;SDS011;2826;51.354;9.588;2022-10-22T09:57:51;17.10;;;4.83;;
5608;SDS011;2826;51.354;9.588;2022-10-22T10:00:19;18.47;;;5.00;;
5608;SDS011;2826;51.354;9.588;2022-10-22T10:02:53;7.67;;;4.27;;
5608;SDS011;2826;51.354;9.588;2022-10-22T10:05:27;5.23;;;4.20;;
5608;SDS011;2826;51.354;9.588;2022-10-22T10:07:55;16.07;;;5.13;;
5608;SDS011;2826;51.354;9.588;2022-10-22T10:10:27;10.10;;;4.70;;
5608;SDS011;2826;51.354;9.588;2022-10-22T10:13:02;8.27;;;4.07;;
5608;SDS011;2826;51.354;9.588;2022-10-22T10:15:42;17.03;;;4.73;;
5608;SDS011;2826;51.354;9.588;2022-10-22T10:18:19;17.93;;;5.17;;
5608;SDS011;2826;51.354;9.588;2022-10-22T10:20:55;5.80;;;4.70;;
5608;SDS011;2826;51.354;9.588;2022-10-22T10:23:30;7.00;;;4.47;;
5608;SDS011;2826;51.354;9.588;2022-10-22T10:26:03;10.50;;;4.30;;
5608;SDS011;2826;51.354;9.588;2022-10-22T10:28:38;16.20;;;4.80;;
5608;SDS011;2826;51.354;9.588;2022-10-22T10:31:19;16.63;;;4.77;;
5608;SDS011;2826;51.354;9.588;2022-10-22T10:34:08;8.48;;;4.60;;
5608;SDS011;2826;51.354;9.588;2022-10-22T10:36:47;8.67;;;4.30;;
5608;SDS011;2826;51.354;9.588;2022-10-22T10:39:23;8.27;;;4.10;;
5608;SDS011;2826;51.354;9.588;2022-10-22T10:42:01;14.43;;;4.60;;
5608;SDS011;2826;51.354;9.588;2022-10-22T10:44:43;9.23;;;4.20;;
5608;SDS011;2826;51.354;9.588;2022-10-22T10:47:32;6.50;;;3.63;;
5608;SDS011;2826;51.354;9.588;2022-10-22T10:50:29;9.27;;;3.80;;
5608;SDS011;2826;51.354;9.588;2022-10-22T10:53:02;5.00;;;3.87;;
5608;SDS011;2826;51.354;9.588;2022-10-22T10:55:41;8.70;;;3.93;;
5608;SDS011;2826;51.354;9.588;2022-10-22T10:58:20;5.37;;;3.53;;
5608;SDS011;2826;51.354;9.588;2022-10-22T11:00:59;10.43;;;3.80;;
5608;SDS011;2826;51.354;9.588;2022-10-22T11:03:33;9.93;;;3.93;;
5608;SDS011;2826;51.354;9.588;2022-10-22T11:06:09;8.10;;;3.40;;
5608;SDS011;2826;51.354;9.588;2022-10-22T11:08:38;5.80;;;3.30;;
5608;SDS011;2826;51.354;9.588;2022-10-22T11:11:10;5.30;;;3.10;;
5608;SDS011;2826;51.354;9.588;2022-10-22T11:13:44;8.13;;;3.10;;
5608;SDS011;2826;51.354;9.588;2022-10-22T11:16:18;5.07;;;3.03;;
5608;SDS011;2826;51.354;9.588;2022-10-22T11:18:51;4.80;;;3.27;;
5608;SDS011;2826;51.354;9.588;2022-10-22T11:21:26;6.17;;;3.27;;
5608;SDS011;2826;51.354;9.588;2022-10-22T11:24:00;9.27;;;2.80;;
5608;SDS011;2826;51.354;9.588;2022-10-22T11:26:36;5.37;;;3.00;;
5608;SDS011;2826;51.354;9.588;2022-10-22T11:29:10;4.27;;;2.10;;
5608;SDS011;2826;51.354;9.588;2022-10-22T11:31:40;9.80;;;2.90;;
5608;SDS011;2826;51.354;9.588;2022-10-22T11:34:11;5.90;;;2.97;;
5608;SDS011;2826;51.354;9.588;2022-10-22T11:36:44;8.47;;;2.73;;
5608;SDS011;2826;51.354;9.588;2022-10-22T11:39:27;3.80;;;2.63;;
5608;SDS011;2826;51.354;9.588;2022-10-22T11:41:56;4.50;;;2.47;;
5608;SDS011;2826;51.354;9.588;2022-10-22T11:44:23;8.27;;;2.43;;
5608;SDS011;2826;51.354;9.588;2022-10-22T11:46:55;6.90;;;2.23;;
5608;SDS011;2826;51.354;9.588;2022-10-22T11:49:24;8.73;;;2.80;;
5608;SDS011;2826;51.354;9.588;2022-10-22T11:52:04;14.17;;;2.90;;
5608;SDS011;2826;51.354;9.588;2022-10-22T11:54:47;15.43;;;2.30;;
5608;SDS011;2826;51.354;9.588;2022-10-22T11:57:18;7.90;;;2.33;;
5608;SDS011;2826;51.354;9.588;2022-10-22T11:59:50;4.97;;;2.20;;
5608;SDS011;2826;51.354;9.588;2022-10-22T12:02:22;5.13;;;2.20;;
5608;SDS011;2826;51.354;9.588;2022-10-22T12:07:52;5.00;;;2.60;;
5608;SDS011;2826;51.354;9.588;2022-10-22T12:10:25;4.77;;;2.30;;
5608;SDS011;2826;51.354;9.588;2022-10-22T12:12:55;10.03;;;2.30;;
5608;SDS011;2826;51.354;9.588;2022-10-22T12:15:24;8.10;;;2.00;;
5608;SDS011;2826;51.354;9.588;2022-10-22T12:17:57;9.30;;;2.57;;
5608;SDS011;2826;51.354;9.588;2022-10-22T12:20:26;5.93;;;2.10;;
5608;SDS011;2826;51.354;9.588;2022-10-22T12:22:55;6.20;;;2.07;;
5608;SDS011;2826;51.354;9.588;2022-10-22T12:25:25;11.27;;;2.67;;
5608;SDS011;2826;51.354;9.588;2022-10-22T12:27:56;19.40;;;2.70;;
5608;SDS011;2826;51.354;9.588;2022-10-22T12:30:26;7.20;;;2.40;;
5608;SDS011;2826;51.354;9.588;2022-10-22T12:32:55;13.33;;;2.53;;
5608;SDS011;2826;51.354;9.588;2022-10-22T12:35:25;8.60;;;3.10;;
5608;SDS011;2826;51.354;9.588;2022-10-22T12:37:56;3.90;;;2.50;;
5608;SDS011;2826;51.354;9.588;2022-10-22T12:40:24;9.10;;;2.47;;
5608;SDS011;2826;51.354;9.588;2022-10-22T12:42:53;8.33;;;2.63;;
5608;SDS011;2826;51.354;9.588;2022-10-22T12:45:22;8.37;;;3.40;;
5608;SDS011;2826;51.354;9.588;2022-10-22T12:47:54;3.00;;;2.47;;
5608;SDS011;2826;51.354;9.588;2022-10-22T12:50:25;11.70;;;3.43;;
5608;SDS011;2826;51.354;9.588;2022-10-22T12:52:58;7.40;;;2.27;;
5608;SDS011;2826;51.354;9.588;2022-10-22T12:55:25;5.30;;;2.10;;
5608;SDS011;2826;51.354;9.588;2022-10-22T12:57:52;6.47;;;2.43;;
5608;SDS011;2826;51.354;9.588;2022-10-22T13:00:20;8.40;;;2.50;;
5608;SDS011;2826;51.354;9.588;2022-10-22T13:02:49;7.23;;;2.00;;
5608;SDS011;2826;51.354;9.588;2022-10-22T13:05:20;11.93;;;2.50;;
5608;SDS011;2826;51.354;9.588;2022-10-22T13:07:52;9.93;;;2.33;;
5608;SDS011;2826;51.354;9.588;2022-10-22T13:10:24;3.27;;;1.83;;
5608;SDS011;2826;51.354;9.588;2022-10-22T13:12:53;11.17;;;2.10;;
5608;SDS011;2826;51.354;9.588;2022-10-22T13:15:31;7.60;;;1.80;;
5608;SDS011;2826;51.354;9.588;2022-10-22T13:18:03;6.00;;;2.47;;
5608;SDS011;2826;51.354;9.588;2022-10-22T13:20:31;5.80;;;2.50;;
5608;SDS011;2826;51.354;9.588;2022-10-22T13:23:02;6.40;;;1.93;;
5608;SDS011;2826;51.354;9.588;2022-10-22T13:25:31;4.50;;;1.73;;
5608;SDS011;2826;51.354;9.588;2022-10-22T13:27:59;3.60;;;1.80;;
5608;SDS011;2826;51.354;9.588;2022-10-22T13:30:29;7.43;;;2.17;;
5608;SDS011;2826;51.354;9.588;2022-10-22T13:32:57;16.30;;;1.80;;
5608;SDS011;2826;51.354;9.588;2022-10-22T13:35:26;10.53;;;2.20;;
5608;SDS011;2826;51.354;9.588;2022-10-22T13:37:57;7.13;;;1.67;;
5608;SDS011;2826;51.354;9.588;2022-10-22T13:40:24;8.00;;;2.07;;
5608;SDS011;2826;51.354;9.588;2022-10-22T13:42:52;2.80;;;1.73;;
5608;SDS011;2826;51.354;9.588;2022-10-22T13:45:19;8.07;;;1.80;;
5608;SDS011;2826;51.354;9.588;2022-10-22T13:47:47;9.60;;;2.77;;
5608;SDS011;2826;51.354;9.588;2022-10-22T13:50:17;4.60;;;2.73;;
5608;SDS011;2826;51.354;9.588;2022-10-22T13:52:46;12.37;;;3.80;;
5608;SDS011;2826;51.354;9.588;2022-10-22T13:55:17;4.30;;;2.33;;
5608;SDS011;2826;51.354;9.588;2022-10-22T13:57:46;6.90;;;3.40;;
5608;SDS011;2826;51.354;9.588;2022-10-22T14:00:16;4.80;;;1.70;;
5608;SDS011;2826;51.354;9.588;2022-10-22T14:02:45;4.63;;;2.23;;
5608;SDS011;2826;51.354;9.588;2022-10-22T14:05:14;7.80;;;1.50;;
5608;SDS011;2826;51.354;9.588;2022-10-22T14:07:45;5.27;;;1.50;;
5608;SDS011;2826;51.354;9.588;2022-10-22T14:10:13;3.23;;;1.70;;
5608;SDS011;2826;51.354;9.588;2022-10-22T14:12:41;4.57;;;2.03;;
5608;SDS011;2826;51.354;9.588;2022-10-22T14:15:09;3.40;;;2.43;;
5608;SDS011;2826;51.354;9.588;2022-10-22T14:17:39;7.60;;;1.93;;
5608;SDS011;2826;51.354;9.588;2022-10-22T14:20:09;6.10;;;1.40;;
5608;SDS011;2826;51.354;9.588;2022-10-22T14:22:40;5.50;;;1.67;;
5608;SDS011;2826;51.354;9.588;2022-10-22T14:25:08;5.20;;;2.20;;
5608;SDS011;2826;51.354;9.588;2022-10-22T14:27:38;5.90;;;3.40;;
5608;SDS011;2826;51.354;9.588;2022-10-22T14:30:05;6.17;;;3.33;;
5608;SDS011;2826;51.354;9.588;2022-10-22T14:32:32;4.20;;;1.73;;
5608;SDS011;2826;51.354;9.588;2022-10-22T14:35:00;4.83;;;1.97;;
5608;SDS011;2826;51.354;9.588;2022-10-22T14:37:27;5.47;;;2.23;;
5608;SDS011;2826;51.354;9.588;2022-10-22T14:39:53;8.60;;;2.20;;
5608;SDS011;2826;51.354;9.588;2022-10-22T14:42:25;7.87;;;2.63;;
5608;SDS011;2826;51.354;9.588;2022-10-22T14:44:52;4.63;;;2.00;;
5608;SDS011;2826;51.354;9.588;2022-10-22T14:47:19;5.57;;;2.70;;
5608;SDS011;2826;51.354;9.588;2022-10-22T14:49:45;6.33;;;3.30;;
5608;SDS011;2826;51.354;9.588;2022-10-22T14:52:13;12.73;;;4.53;;
5608;SDS011;2826;51.354;9.588;2022-10-22T14:54:40;10.93;;;3.67;;
5608;SDS011;2826;51.354;9.588;2022-10-22T14:57:07;8.43;;;2.80;;
5608;SDS011;2826;51.354;9.588;2022-10-22T14:59:35;8.90;;;3.27;;
5608;SDS011;2826;51.354;9.588;2022-10-22T15:02:02;7.50;;;2.73;;
5608;SDS011;2826;51.354;9.588;2022-10-22T15:04:29;7.50;;;3.40;;
5608;SDS011;2826;51.354;9.588;2022-10-22T15:06:55;7.53;;;3.07;;
5608;SDS011;2826;51.354;9.588;2022-10-22T15:09:24;9.53;;;2.40;;
5608;SDS011;2826;51.354;9.588;2022-10-22T15:11:51;4.73;;;1.83;;
5608;SDS011;2826;51.354;9.588;2022-10-22T15:14:17;8.00;;;1.90;;
5608;SDS011;2826;51.354;9.588;2022-10-22T15:16:44;3.73;;;1.97;;
5608;SDS011;2826;51.354;9.588;2022-10-22T15:19:11;7.93;;;1.90;;
5608;SDS011;2826;51.354;9.588;2022-10-22T15:21:38;18.93;;;3.60;;
5608;SDS011;2826;51.354;9.588;2022-10-22T15:24:05;8.87;;;2.60;;
5608;SDS011;2826;51.354;9.588;2022-10-22T15:26:33;2.83;;;1.50;;